sensor_id;sensor_type;location;lat;lon;timestamp;pressure;altitude;pressure_sealevel;temperature;humidity
73383;BME280;61600;48.126;11.542;2022-08-11T00:01:36;96020.09;;;19.15;48.92
73383;BME280;61600;48.126;11.542;2022-08-11T00:04:07;96020.91;;;19.16;49.28
73383;BME280;61600;48.126;11.542;2022-08-11T00:06:35;96017.53;;;19.10;49.54
73383;BME280;61600;48.126;11.542;2022-08-11T00:09:08;96012.84;;;19.02;49.43
73383;BME280;61600;48.126;11.542;2022-08-11T00:11:44;96020.16;;;18.98;49.36
73383;BME280;61600;48.126;11.542;2022-08-11T00:14:17;96010.94;;;18.94;49.70
73383;BME280;61600;48.126;11.542;2022-08-11T00:16:44;96017.09;;;18.91;49.87
73383;BME280;61600;48.126;11.542;2022-08-11T00:19:23;96014.66;;;18.89;49.87
73383;BME280;61600;48.126;11.542;2022-08-11T00:21:49;96022.78;;;18.86;49.82
73383;BME280;61600;48.126;11.542;2022-08-11T00:24:17;96023.28;;;18.79;50.18
73383;BME280;61600;48.126;11.542;2022-08-11T00:26:51;96021.84;;;18.73;50.40
73383;BME280;61600;48.126;11.542;2022-08-11T00:29:18;96025.91;;;18.76;50.16
73383;BME280;61600;48.126;11.542;2022-08-11T00:31:48;96027.69;;;18.72;50.42
73383;BME280;61600;48.126;11.542;2022-08-11T00:34:17;96029.97;;;18.70;50.69
73383;BME280;61600;48.126;11.542;2022-08-11T00:36:51;96028.69;;;18.67;50.48
73383;BME280;61600;48.126;11.542;2022-08-11T00:39:20;96026.09;;;18.62;50.54
73383;BME280;61600;48.126;11.542;2022-08-11T00:47:08;96033.06;;;18.51;51.29
73383;BME280;61600;48.126;11.542;2022-08-11T00:49:57;96034.84;;;18.47;51.15
73383;BME280;61600;48.126;11.542;2022-08-11T00:53:02;96026.91;;;18.45;51.34
73383;BME280;61600;48.126;11.542;2022-08-11T01:03:58;96021.38;;;18.37;51.64
73383;BME280;61600;48.126;11.542;2022-08-11T01:29:53;96013.47;;;18.18;52.25
73383;BME280;61600;48.126;11.542;2022-08-11T01:44:07;96018.81;;;17.89;53.17
73383;BME280;61600;48.126;11.542;2022-08-11T01:47:09;96019.13;;;17.79;53.61
73383;BME280;61600;48.126;11.542;2022-08-11T01:59:02;96011.00;;;17.74;53.25
73383;BME280;61600;48.126;11.542;2022-08-11T02:01:53;96005.97;;;17.67;53.36
73383;BME280;61600;48.126;11.542;2022-08-11T02:04:39;96002.91;;;17.77;53.83
73383;BME280;61600;48.126;11.542;2022-08-11T02:07:21;95998.38;;;17.64;53.87
73383;BME280;61600;48.126;11.542;2022-08-11T02:10:20;96007.09;;;17.66;53.57
73383;BME280;61600;48.126;11.542;2022-08-11T02:13:14;96000.81;;;17.66;53.58
73383;BME280;61600;48.126;11.542;2022-08-11T02:15:45;96000.31;;;17.64;53.64
73383;BME280;61600;48.126;11.542;2022-08-11T02:18:16;96006.47;;;17.61;54.20
73383;BME280;61600;48.126;11.542;2022-08-11T02:20:53;96005.16;;;17.58;53.63
73383;BME280;61600;48.126;11.542;2022-08-11T02:23:50;96003.03;;;17.55;53.95
73383;BME280;61600;48.126;11.542;2022-08-11T02:32:10;96004.81;;;17.51;54.33
73383;BME280;61600;48.126;11.542;2022-08-11T02:35:27;96003.00;;;17.46;54.49
73383;BME280;61600;48.126;11.542;2022-08-11T02:38:15;95997.03;;;17.44;54.39
73383;BME280;61600;48.126;11.542;2022-08-11T02:43:37;96001.84;;;17.39;54.61
73383;BME280;61600;48.126;11.542;2022-08-11T02:48:52;95996.16;;;17.35;54.67
73383;BME280;61600;48.126;11.542;2022-08-11T02:51:54;95992.31;;;17.36;54.61
73383;BME280;61600;48.126;11.542;2022-08-11T02:54:43;96002.31;;;17.32;55.25
73383;BME280;61600;48.126;11.542;2022-08-11T02:57:20;96000.38;;;17.33;55.25
73383;BME280;61600;48.126;11.542;2022-08-11T02:59:55;96001.50;;;17.32;54.74
73383;BME280;61600;48.126;11.542;2022-08-11T03:10:19;95998.91;;;17.27;55.38
73383;BME280;61600;48.126;11.542;2022-08-11T03:12:52;95999.50;;;17.15;55.84
73383;BME280;61600;48.126;11.542;2022-08-11T03:21:46;95998.88;;;17.18;55.79
73383;BME280;61600;48.126;11.542;2022-08-11T03:24:18;96005.00;;;17.15;55.56
73383;BME280;61600;48.126;11.542;2022-08-11T03:27:10;96010.03;;;17.13;55.64
73383;BME280;61600;48.126;11.542;2022-08-11T03:32:40;95995.28;;;17.09;56.17
73383;BME280;61600;48.126;11.542;2022-08-11T03:35:11;96003.03;;;17.07;56.46
73383;BME280;61600;48.126;11.542;2022-08-11T03:43:25;95994.16;;;17.10;56.47
73383;BME280;61600;48.126;11.542;2022-08-11T03:46:09;95999.28;;;17.03;56.51
73383;BME280;61600;48.126;11.542;2022-08-11T03:48:55;95996.88;;;17.02;57.07
73383;BME280;61600;48.126;11.542;2022-08-11T03:51:38;95999.09;;;16.91;56.67
73383;BME280;61600;48.126;11.542;2022-08-11T03:54:39;95999.41;;;16.89;56.80
73383;BME280;61600;48.126;11.542;2022-08-11T04:00:03;95994.53;;;16.86;57.23
73383;BME280;61600;48.126;11.542;2022-08-11T04:10:57;95998.22;;;16.82;57.36
73383;BME280;61600;48.126;11.542;2022-08-11T04:17:21;95995.84;;;16.89;57.34
73383;BME280;61600;48.126;11.542;2022-08-11T04:25:55;95994.81;;;16.76;57.41
73383;BME280;61600;48.126;11.542;2022-08-11T04:31:36;95995.63;;;16.77;57.58
73383;BME280;61600;48.126;11.542;2022-08-11T04:43:18;95996.13;;;16.79;57.35
73383;BME280;61600;48.126;11.542;2022-08-11T04:52:27;95993.25;;;16.92;57.11
73383;BME280;61600;48.126;11.542;2022-08-11T04:55:19;96009.31;;;16.99;57.08
73383;BME280;61600;48.126;11.542;2022-08-11T04:58:18;96006.41;;;17.04;56.70
73383;BME280;61600;48.126;11.542;2022-08-11T05:13:00;96010.69;;;17.19;57.00
73383;BME280;61600;48.126;11.542;2022-08-11T05:15:51;96019.75;;;17.28;56.64
73383;BME280;61600;48.126;11.542;2022-08-11T05:18:51;96010.91;;;17.31;56.50
73383;BME280;61600;48.126;11.542;2022-08-11T05:21:39;96013.00;;;17.34;56.23
73383;BME280;61600;48.126;11.542;2022-08-11T05:24:29;96019.66;;;17.41;56.39
73383;BME280;61600;48.126;11.542;2022-08-11T05:27:14;96017.88;;;17.37;55.91
73383;BME280;61600;48.126;11.542;2022-08-11T05:30:03;96013.00;;;17.42;56.02
73383;BME280;61600;48.126;11.542;2022-08-11T05:35:46;96011.25;;;17.46;55.93
73383;BME280;61600;48.126;11.542;2022-08-11T05:38:24;96008.84;;;17.54;56.27
73383;BME280;61600;48.126;11.542;2022-08-11T05:41:13;96009.03;;;17.57;55.80
73383;BME280;61600;48.126;11.542;2022-08-11T05:43:59;96011.31;;;17.64;56.14
73383;BME280;61600;48.126;11.542;2022-08-11T05:46:44;96014.91;;;17.73;55.31
73383;BME280;61600;48.126;11.542;2022-08-11T05:49:31;96011.66;;;17.88;55.13
73383;BME280;61600;48.126;11.542;2022-08-11T05:52:21;96003.09;;;17.98;54.77
73383;BME280;61600;48.126;11.542;2022-08-11T05:55:08;96013.94;;;17.86;54.27
73383;BME280;61600;48.126;11.542;2022-08-11T05:58:05;96010.25;;;18.08;54.63
73383;BME280;61600;48.126;11.542;2022-08-11T06:00:41;96004.88;;;18.20;53.85
73383;BME280;61600;48.126;11.542;2022-08-11T06:03:08;96004.56;;;18.21;53.44
73383;BME280;61600;48.126;11.542;2022-08-11T06:05:37;96006.19;;;18.22;53.49
73383;BME280;61600;48.126;11.542;2022-08-11T06:08:08;96008.94;;;18.22;52.98
73383;BME280;61600;48.126;11.542;2022-08-11T06:10:36;96005.06;;;18.15;53.56
73383;BME280;61600;48.126;11.542;2022-08-11T06:13:04;96002.97;;;18.12;53.80
73383;BME280;61600;48.126;11.542;2022-08-11T06:15:33;96006.66;;;18.16;53.50
73383;BME280;61600;48.126;11.542;2022-08-11T06:18:09;95996.47;;;18.25;53.25
73383;BME280;61600;48.126;11.542;2022-08-11T06:20:45;96004.22;;;18.40;53.40
73383;BME280;61600;48.126;11.542;2022-08-11T06:23:15;96004.22;;;18.40;53.01
73383;BME280;61600;48.126;11.542;2022-08-11T06:25:43;95997.25;;;18.42;52.81
73383;BME280;61600;48.126;11.542;2022-08-11T06:28:10;96011.34;;;18.41;53.12
73383;BME280;61600;48.126;11.542;2022-08-11T06:30:38;96004.06;;;18.54;52.91
73383;BME280;61600;48.126;11.542;2022-08-11T06:33:10;96009.59;;;18.54;52.94
73383;BME280;61600;48.126;11.542;2022-08-11T06:41:06;96011.00;;;18.77;52.75
73383;BME280;61600;48.126;11.542;2022-08-11T06:46:50;96013.75;;;18.77;52.96
73383;BME280;61600;48.126;11.542;2022-08-11T06:49:21;96016.00;;;18.83;52.69
73383;BME280;61600;48.126;11.542;2022-08-11T06:52:10;96012.72;;;18.99;52.45
73383;BME280;61600;48.126;11.542;2022-08-11T06:54:50;96021.50;;;18.92;52.78
73383;BME280;61600;48.126;11.542;2022-08-11T06:57:19;96011.22;;;19.01;52.78
73383;BME280;61600;48.126;11.542;2022-08-11T07:00:04;96013.63;;;19.11;52.10
73383;BME280;61600;48.126;11.542;2022-08-11T07:03:15;96022.31;;;19.30;51.95
73383;BME280;61600;48.126;11.542;2022-08-11T07:05:55;96024.88;;;19.44;51.59
73383;BME280;61600;48.126;11.542;2022-08-11T07:14:40;96017.56;;;19.48;50.92
73383;BME280;61600;48.126;11.542;2022-08-11T07:17:30;96010.97;;;19.61;50.72
73383;BME280;61600;48.126;11.542;2022-08-11T07:20:02;96019.09;;;19.66;50.30
73383;BME280;61600;48.126;11.542;2022-08-11T07:22:58;96011.72;;;19.70;50.53
73383;BME280;61600;48.126;11.542;2022-08-11T07:25:49;96013.31;;;19.80;49.93
73383;BME280;61600;48.126;11.542;2022-08-11T07:28:38;96015.25;;;19.79;50.05
73383;BME280;61600;48.126;11.542;2022-08-11T07:31:36;96008.88;;;19.87;49.90
73383;BME280;61600;48.126;11.542;2022-08-11T07:34:19;96004.91;;;19.97;49.63
73383;BME280;61600;48.126;11.542;2022-08-11T07:37:13;96001.75;;;20.07;49.15
73383;BME280;61600;48.126;11.542;2022-08-11T07:39:43;96007.66;;;20.18;49.05
73383;BME280;61600;48.126;11.542;2022-08-11T07:42:12;96002.72;;;20.23;48.82
73383;BME280;61600;48.126;11.542;2022-08-11T07:44:43;96004.34;;;20.24;48.83
73383;BME280;61600;48.126;11.542;2022-08-11T07:47:30;95999.13;;;20.31;48.41
73383;BME280;61600;48.126;11.542;2022-08-11T07:50:14;96009.72;;;20.29;48.83
73383;BME280;61600;48.126;11.542;2022-08-11T07:52:59;96002.97;;;20.39;48.84
73383;BME280;61600;48.126;11.542;2022-08-11T07:55:26;96000.78;;;20.44;48.82
73383;BME280;61600;48.126;11.542;2022-08-11T07:57:52;96007.13;;;20.45;48.36
73383;BME280;61600;48.126;11.542;2022-08-11T08:00:46;96004.97;;;20.51;48.83
73383;BME280;61600;48.126;11.542;2022-08-11T08:03:32;96005.19;;;20.46;48.40
73383;BME280;61600;48.126;11.542;2022-08-11T08:06:17;96004.88;;;20.59;48.30
73383;BME280;61600;48.126;11.542;2022-08-11T08:09:02;95989.41;;;20.79;47.96
73383;BME280;61600;48.126;11.542;2022-08-11T08:11:48;95987.34;;;20.88;48.31
73383;BME280;61600;48.126;11.542;2022-08-11T08:14:34;95993.69;;;20.88;48.07
73383;BME280;61600;48.126;11.542;2022-08-11T08:17:20;96000.72;;;20.98;47.89
73383;BME280;61600;48.126;11.542;2022-08-11T08:20:08;96002.94;;;21.05;47.47
73383;BME280;61600;48.126;11.542;2022-08-11T08:22:36;95999.06;;;21.18;47.31
73383;BME280;61600;48.126;11.542;2022-08-11T08:25:03;95998.84;;;21.23;47.58
73383;BME280;61600;48.126;11.542;2022-08-11T08:27:29;96000.91;;;21.26;47.12
73383;BME280;61600;48.126;11.542;2022-08-11T08:29:56;96003.34;;;21.27;47.46
73383;BME280;61600;48.126;11.542;2022-08-11T08:32:42;96000.25;;;21.41;46.86
73383;BME280;61600;48.126;11.542;2022-08-11T08:35:10;96002.88;;;21.37;46.41
73383;BME280;61600;48.126;11.542;2022-08-11T08:37:35;96007.03;;;21.43;47.23
73383;BME280;61600;48.126;11.542;2022-08-11T08:40:02;96006.13;;;21.52;46.81
73383;BME280;61600;48.126;11.542;2022-08-11T08:42:29;96008.78;;;21.60;47.05
73383;BME280;61600;48.126;11.542;2022-08-11T08:45:02;96005.19;;;21.72;46.88
73383;BME280;61600;48.126;11.542;2022-08-11T08:47:30;96002.53;;;21.75;46.85
73383;BME280;61600;48.126;11.542;2022-08-11T08:50:06;96003.13;;;21.81;46.35
73383;BME280;61600;48.126;11.542;2022-08-11T08:52:37;96002.66;;;21.91;46.12
73383;BME280;61600;48.126;11.542;2022-08-11T08:55:08;96018.22;;;21.96;46.99
73383;BME280;61600;48.126;11.542;2022-08-11T08:57:37;95999.63;;;22.08;46.07
73383;BME280;61600;48.126;11.542;2022-08-11T09:00:05;95999.47;;;22.17;45.75
73383;BME280;61600;48.126;11.542;2022-08-11T09:02:31;95993.81;;;22.25;46.09
73383;BME280;61600;48.126;11.542;2022-08-11T09:04:58;95993.56;;;22.30;45.48
73383;BME280;61600;48.126;11.542;2022-08-11T09:07:24;95995.84;;;22.40;44.92
73383;BME280;61600;48.126;11.542;2022-08-11T09:09:56;95997.78;;;22.40;45.13
73383;BME280;61600;48.126;11.542;2022-08-11T09:12:26;95997.28;;;22.50;45.02
73383;BME280;61600;48.126;11.542;2022-08-11T09:14:54;96002.34;;;22.60;44.93
73383;BME280;61600;48.126;11.542;2022-08-11T09:17:33;95994.72;;;22.69;44.70
73383;BME280;61600;48.126;11.542;2022-08-11T09:20:04;95998.13;;;22.78;44.48
73383;BME280;61600;48.126;11.542;2022-08-11T09:22:35;95995.88;;;22.84;44.34
73383;BME280;61600;48.126;11.542;2022-08-11T09:25:25;95998.47;;;22.77;43.86
73383;BME280;61600;48.126;11.542;2022-08-11T09:28:11;95996.78;;;22.88;44.16
73383;BME280;61600;48.126;11.542;2022-08-11T09:30:43;96001.38;;;22.96;43.66
73383;BME280;61600;48.126;11.542;2022-08-11T09:33:11;95994.06;;;23.04;43.74
73383;BME280;61600;48.126;11.542;2022-08-11T09:35:39;95997.09;;;23.14;43.06
73383;BME280;61600;48.126;11.542;2022-08-11T09:38:10;95998.97;;;23.10;43.39
73383;BME280;61600;48.126;11.542;2022-08-11T09:40:56;96009.47;;;23.17;42.65
73383;BME280;61600;48.126;11.542;2022-08-11T09:43:24;96007.84;;;23.16;43.53
73383;BME280;61600;48.126;11.542;2022-08-11T09:46:10;96015.72;;;23.29;42.82
73383;BME280;61600;48.126;11.542;2022-08-11T09:48:44;96012.44;;;23.39;41.42
73383;BME280;61600;48.126;11.542;2022-08-11T09:51:12;96007.53;;;23.49;41.81
73383;BME280;61600;48.126;11.542;2022-08-11T09:53:40;96001.81;;;23.57;40.84
73383;BME280;61600;48.126;11.542;2022-08-11T09:56:10;96001.50;;;23.62;40.46
73383;BME280;61600;48.126;11.542;2022-08-11T09:58:57;95996.03;;;23.81;40.65
73383;BME280;61600;48.126;11.542;2022-08-11T10:01:28;96000.22;;;23.91;40.29
73383;BME280;61600;48.126;11.542;2022-08-11T10:04:08;95984.88;;;23.97;39.56
73383;BME280;61600;48.126;11.542;2022-08-11T10:06:38;95992.81;;;24.14;39.63
73383;BME280;61600;48.126;11.542;2022-08-11T10:09:23;95986.75;;;24.28;39.60
73383;BME280;61600;48.126;11.542;2022-08-11T10:11:53;95987.78;;;24.39;38.40
73383;BME280;61600;48.126;11.542;2022-08-11T10:14:20;95981.88;;;24.41;38.46
73383;BME280;61600;48.126;11.542;2022-08-11T10:17:08;95974.03;;;24.46;38.02
73383;BME280;61600;48.126;11.542;2022-08-11T10:19:35;95978.22;;;24.56;37.61
73383;BME280;61600;48.126;11.542;2022-08-11T10:22:05;95973.50;;;24.79;38.18
73383;BME280;61600;48.126;11.542;2022-08-11T10:24:54;95962.81;;;25.00;37.15
73383;BME280;61600;48.126;11.542;2022-08-11T10:27:41;95976.59;;;25.16;36.79
73383;BME280;61600;48.126;11.542;2022-08-11T10:30:08;95972.78;;;25.24;36.84
73383;BME280;61600;48.126;11.542;2022-08-11T10:32:53;95967.03;;;25.36;36.04
73383;BME280;61600;48.126;11.542;2022-08-11T10:35:37;95970.88;;;25.51;36.56
73383;BME280;61600;48.126;11.542;2022-08-11T10:38:03;95966.03;;;25.70;36.95
73383;BME280;61600;48.126;11.542;2022-08-11T10:40:30;95974.53;;;25.81;35.38
73383;BME280;61600;48.126;11.542;2022-08-11T10:42:58;95969.94;;;25.92;35.72
73383;BME280;61600;48.126;11.542;2022-08-11T10:45:33;95969.88;;;25.89;35.71
73383;BME280;61600;48.126;11.542;2022-08-11T10:48:19;95950.53;;;25.99;34.94
73383;BME280;61600;48.126;11.542;2022-08-11T10:50:50;95943.13;;;26.10;35.21
73383;BME280;61600;48.126;11.542;2022-08-11T10:53:44;95952.97;;;26.30;34.96
73383;BME280;61600;48.126;11.542;2022-08-11T10:56:34;95948.38;;;26.45;34.45
73383;BME280;61600;48.126;11.542;2022-08-11T10:59:19;95958.44;;;26.53;34.72
73383;BME280;61600;48.126;11.542;2022-08-11T11:01:50;95943.00;;;26.63;34.48
73383;BME280;61600;48.126;11.542;2022-08-11T11:04:22;95941.84;;;26.67;33.62
73383;BME280;61600;48.126;11.542;2022-08-11T11:10:18;95941.22;;;26.81;34.44
73383;BME280;61600;48.126;11.542;2022-08-11T11:12:36;95942.25;;;27.03;33.30
73383;BME280;61600;48.126;11.542;2022-08-11T11:15:23;95937.59;;;27.14;33.52
73383;BME280;61600;48.126;11.542;2022-08-11T11:18:31;95941.34;;;27.32;32.67
73383;BME280;61600;48.126;11.542;2022-08-11T11:21:12;95932.63;;;27.37;33.40
73383;BME280;61600;48.126;11.542;2022-08-11T11:23:53;95942.69;;;27.45;32.58
73383;BME280;61600;48.126;11.542;2022-08-11T11:37:00;95929.44;;;27.90;31.86
73383;BME280;61600;48.126;11.542;2022-08-11T11:39:30;95927.13;;;28.02;31.63
73383;BME280;61600;48.126;11.542;2022-08-11T11:42:00;95928.78;;;28.07;31.28
73383;BME280;61600;48.126;11.542;2022-08-11T11:44:28;95916.59;;;27.82;31.74
73383;BME280;61600;48.126;11.542;2022-08-11T11:46:54;95924.66;;;27.90;30.89
73383;BME280;61600;48.126;11.542;2022-08-11T11:49:21;95920.81;;;28.16;30.92
73383;BME280;61600;48.126;11.542;2022-08-11T11:51:49;95919.72;;;28.35;30.59
73383;BME280;61600;48.126;11.542;2022-08-11T11:54:22;95918.16;;;28.44;30.45
73383;BME280;61600;48.126;11.542;2022-08-11T11:56:50;95924.19;;;28.50;30.14
73383;BME280;61600;48.126;11.542;2022-08-11T11:59:23;95922.72;;;28.77;30.44
73383;BME280;61600;48.126;11.542;2022-08-11T12:02:12;95909.94;;;28.97;29.64
73383;BME280;61600;48.126;11.542;2022-08-11T12:04:40;95919.56;;;29.03;29.75
73383;BME280;61600;48.126;11.542;2022-08-11T12:07:07;95910.34;;;28.85;29.61
73383;BME280;61600;48.126;11.542;2022-08-11T12:09:54;95915.13;;;28.74;29.39
73383;BME280;61600;48.126;11.542;2022-08-11T12:12:21;95908.78;;;29.19;29.12
73383;BME280;61600;48.126;11.542;2022-08-11T12:15:06;95904.38;;;29.18;28.80
73383;BME280;61600;48.126;11.542;2022-08-11T12:17:34;95902.41;;;29.44;28.89
73383;BME280;61600;48.126;11.542;2022-08-11T12:20:02;95900.78;;;29.71;28.19
73383;BME280;61600;48.126;11.542;2022-08-11T12:22:29;95909.22;;;29.46;28.42
73383;BME280;61600;48.126;11.542;2022-08-11T12:25:15;95905.59;;;29.88;28.21
73383;BME280;61600;48.126;11.542;2022-08-11T12:28:01;95901.59;;;29.89;28.11
73383;BME280;61600;48.126;11.542;2022-08-11T12:30:27;95897.59;;;29.94;27.95
73383;BME280;61600;48.126;11.542;2022-08-11T12:32:52;95893.44;;;30.30;27.75
73383;BME280;61600;48.126;11.542;2022-08-11T12:35:18;95901.84;;;30.44;26.91
73383;BME280;61600;48.126;11.542;2022-08-11T12:37:46;95891.41;;;30.52;26.72
73383;BME280;61600;48.126;11.542;2022-08-11T12:40:17;95891.63;;;30.89;26.59
73383;BME280;61600;48.126;11.542;2022-08-11T12:43:06;95881.94;;;30.90;25.99
73383;BME280;61600;48.126;11.542;2022-08-11T12:45:54;95892.56;;;30.54;26.36
73383;BME280;61600;48.126;11.542;2022-08-11T12:48:26;95878.31;;;30.93;26.00
73383;BME280;61600;48.126;11.542;2022-08-11T12:51:19;95882.41;;;30.85;26.38
73383;BME280;61600;48.126;11.542;2022-08-11T12:54:15;95877.31;;;31.25;25.51
73383;BME280;61600;48.126;11.542;2022-08-11T12:56:44;95866.16;;;31.14;25.58
73383;BME280;61600;48.126;11.542;2022-08-11T12:59:31;95864.56;;;31.13;25.73
73383;BME280;61600;48.126;11.542;2022-08-11T13:02:18;95865.88;;;31.49;25.27
73383;BME280;61600;48.126;11.542;2022-08-11T13:05:06;95868.25;;;31.58;25.26
73383;BME280;61600;48.126;11.542;2022-08-11T13:07:33;95868.66;;;31.56;25.29
73383;BME280;61600;48.126;11.542;2022-08-11T13:10:01;95858.66;;;31.93;24.84
73383;BME280;61600;48.126;11.542;2022-08-11T13:12:28;95865.38;;;31.65;24.46
73383;BME280;61600;48.126;11.542;2022-08-11T13:15:19;95863.25;;;31.25;25.27
73383;BME280;61600;48.126;11.542;2022-08-11T13:17:46;95865.22;;;31.79;24.49
73383;BME280;61600;48.126;11.542;2022-08-11T13:20:16;95852.88;;;31.18;25.11
73383;BME280;61600;48.126;11.542;2022-08-11T13:22:48;95861.38;;;31.07;24.91
73383;BME280;61600;48.126;11.542;2022-08-11T13:25:16;95860.75;;;31.37;24.61
73383;BME280;61600;48.126;11.542;2022-08-11T13:27:44;95864.34;;;31.41;24.54
73383;BME280;61600;48.126;11.542;2022-08-11T13:30:12;95864.50;;;31.72;24.42
73383;BME280;61600;48.126;11.542;2022-08-11T13:32:58;95845.78;;;31.54;24.51
73383;BME280;61600;48.126;11.542;2022-08-11T13:35:25;95859.56;;;31.83;23.89
73383;BME280;61600;48.126;11.542;2022-08-11T13:37:53;95850.50;;;32.39;23.93
73383;BME280;61600;48.126;11.542;2022-08-11T13:40:21;95848.53;;;32.36;23.75
73383;BME280;61600;48.126;11.542;2022-08-11T13:42:50;95856.22;;;32.32;23.73
73383;BME280;61600;48.126;11.542;2022-08-11T13:45:16;95845.00;;;32.29;23.19
73383;BME280;61600;48.126;11.542;2022-08-11T13:47:42;95842.28;;;32.52;23.80
73383;BME280;61600;48.126;11.542;2022-08-11T13:50:08;95847.59;;;32.77;23.08
73383;BME280;61600;48.126;11.542;2022-08-11T13:52:37;95839.03;;;32.84;23.18
73383;BME280;61600;48.126;11.542;2022-08-11T13:55:05;95847.97;;;33.05;23.00
73383;BME280;61600;48.126;11.542;2022-08-11T13:57:33;95835.34;;;33.17;22.32
73383;BME280;61600;48.126;11.542;2022-08-11T14:00:00;95847.16;;;33.05;22.63
73383;BME280;61600;48.126;11.542;2022-08-11T14:02:43;95841.25;;;33.49;21.73
73383;BME280;61600;48.126;11.542;2022-08-11T14:05:15;95833.34;;;33.64;22.03
73383;BME280;61600;48.126;11.542;2022-08-11T14:07:56;95838.00;;;34.17;21.98
73383;BME280;61600;48.126;11.542;2022-08-11T14:10:26;95830.34;;;34.18;20.63
73383;BME280;61600;48.126;11.542;2022-08-11T14:13:02;95835.78;;;33.39;21.72
73383;BME280;61600;48.126;11.542;2022-08-11T14:15:51;95832.59;;;33.83;21.17
73383;BME280;61600;48.126;11.542;2022-08-11T14:18:25;95833.03;;;33.35;22.47
73383;BME280;61600;48.126;11.542;2022-08-11T14:20:54;95827.88;;;33.30;22.04
73383;BME280;61600;48.126;11.542;2022-08-11T14:23:40;95829.16;;;33.49;22.02
73383;BME280;61600;48.126;11.542;2022-08-11T14:26:08;95835.41;;;33.63;21.62
73383;BME280;61600;48.126;11.542;2022-08-11T14:29:22;95832.22;;;33.58;21.24
73383;BME280;61600;48.126;11.542;2022-08-11T14:31:55;95823.72;;;34.04;21.32
73383;BME280;61600;48.126;11.542;2022-08-11T14:34:26;95828.09;;;33.86;21.61
73383;BME280;61600;48.126;11.542;2022-08-11T14:36:58;95828.72;;;33.50;21.17
73383;BME280;61600;48.126;11.542;2022-08-11T14:39:27;95823.59;;;34.11;20.99
73383;BME280;61600;48.126;11.542;2022-08-11T14:42:02;95813.94;;;34.48;20.57
73383;BME280;61600;48.126;11.542;2022-08-11T14:44:58;95825.81;;;33.81;20.58
73383;BME280;61600;48.126;11.542;2022-08-11T14:47:48;95820.97;;;34.60;20.60
73383;BME280;61600;48.126;11.542;2022-08-11T14:50:18;95823.09;;;34.92;19.89
73383;BME280;61600;48.126;11.542;2022-08-11T14:52:50;95823.06;;;33.97;20.73
73383;BME280;61600;48.126;11.542;2022-08-11T14:55:17;95804.69;;;35.20;19.46
73383;BME280;61600;48.126;11.542;2022-08-11T14:58:03;95809.03;;;36.01;18.81
73383;BME280;61600;48.126;11.542;2022-08-11T15:00:31;95817.00;;;34.57;19.50
73383;BME280;61600;48.126;11.542;2022-08-11T15:02:59;95818.75;;;34.71;20.19
73383;BME280;61600;48.126;11.542;2022-08-11T15:05:48;95814.94;;;33.33;21.02
73383;BME280;61600;48.126;11.542;2022-08-11T15:08:16;95819.63;;;33.16;21.18
73383;BME280;61600;48.126;11.542;2022-08-11T15:10:44;95815.25;;;32.58;21.94
73383;BME280;61600;48.126;11.542;2022-08-11T15:13:10;95802.47;;;31.82;22.94
73383;BME280;61600;48.126;11.542;2022-08-11T15:15:37;95810.84;;;32.23;22.13
73383;BME280;61600;48.126;11.542;2022-08-11T15:18:23;95816.03;;;31.53;22.81
73383;BME280;61600;48.126;11.542;2022-08-11T15:20:50;95813.84;;;31.31;23.16
73383;BME280;61600;48.126;11.542;2022-08-11T15:23:37;95811.44;;;31.26;23.85
73383;BME280;61600;48.126;11.542;2022-08-11T15:26:29;95813.69;;;30.97;23.30
73383;BME280;61600;48.126;11.542;2022-08-11T15:29:19;95800.38;;;31.56;23.36
73383;BME280;61600;48.126;11.542;2022-08-11T15:32:05;95801.72;;;32.15;23.13
73383;BME280;61600;48.126;11.542;2022-08-11T15:34:56;95802.06;;;31.84;22.28
73383;BME280;61600;48.126;11.542;2022-08-11T15:37:43;95803.06;;;32.00;22.53
73383;BME280;61600;48.126;11.542;2022-08-11T15:40:12;95803.41;;;32.40;21.83
73383;BME280;61600;48.126;11.542;2022-08-11T15:43:06;95802.47;;;32.50;22.33
73383;BME280;61600;48.126;11.542;2022-08-11T15:45:54;95799.59;;;32.53;21.49
73383;BME280;61600;48.126;11.542;2022-08-11T15:51:05;95794.22;;;32.36;22.12
73383;BME280;61600;48.126;11.542;2022-08-11T15:53:41;95786.25;;;32.61;20.90
73383;BME280;61600;48.126;11.542;2022-08-11T15:56:09;95780.25;;;32.55;21.21
73383;BME280;61600;48.126;11.542;2022-08-11T15:58:40;95789.41;;;31.99;21.23
73383;BME280;61600;48.126;11.542;2022-08-11T16:01:27;95785.84;;;32.29;21.59
73383;BME280;61600;48.126;11.542;2022-08-11T16:04:15;95783.75;;;32.02;21.40
73383;BME280;61600;48.126;11.542;2022-08-11T16:06:53;95783.13;;;32.22;21.47
73383;BME280;61600;48.126;11.542;2022-08-11T16:09:27;95770.72;;;32.19;21.28
73383;BME280;61600;48.126;11.542;2022-08-11T16:11:58;95779.88;;;32.23;21.24
73383;BME280;61600;48.126;11.542;2022-08-11T16:14:25;95783.75;;;32.66;20.50
73383;BME280;61600;48.126;11.542;2022-08-11T16:17:12;95776.38;;;32.46;20.67
73383;BME280;61600;48.126;11.542;2022-08-11T16:19:41;95771.34;;;32.30;21.29
73383;BME280;61600;48.126;11.542;2022-08-11T16:22:10;95771.72;;;32.62;20.37
73383;BME280;61600;48.126;11.542;2022-08-11T16:24:40;95778.22;;;32.56;20.22
73383;BME280;61600;48.126;11.542;2022-08-11T16:27:10;95776.41;;;32.73;20.23
73383;BME280;61600;48.126;11.542;2022-08-11T16:29:39;95773.56;;;32.46;19.84
73383;BME280;61600;48.126;11.542;2022-08-11T16:32:11;95776.75;;;33.28;19.30
73383;BME280;61600;48.126;11.542;2022-08-11T16:34:47;95770.28;;;33.51;19.39
73383;BME280;61600;48.126;11.542;2022-08-11T16:37:33;95778.25;;;32.26;20.04
73383;BME280;61600;48.126;11.542;2022-08-11T16:40:19;95774.72;;;33.02;19.42